createdAt,value
2022-11-26T00:04:50.061Z,101381.72
2022-11-26T00:09:53.597Z,101374.81
2022-11-26T00:14:58.188Z,101366.97
2022-11-26T00:20:01.349Z,101372.22
2022-11-26T00:25:04.851Z,101368.81
2022-11-26T00:30:16.265Z,101365.41
2022-11-26T00:35:20.062Z,101357.66
2022-11-26T00:40:25.884Z,101360.28
2022-11-26T00:45:32.321Z,101358.50
2022-11-26T00:50:41.430Z,101363.72
2022-11-26T00:55:47.712Z,101363.72
2022-11-26T01:00:52.831Z,101372.41
2022-11-26T01:05:56.715Z,101368.94
2022-11-26T01:11:00.169Z,101376.78
2022-11-26T01:16:13.635Z,101389.91
2022-11-26T01:21:18.023Z,101384.72
2022-11-26T01:26:24.394Z,101389.03
2022-11-26T01:31:30.737Z,101389.81
2022-11-26T01:36:36.389Z,101396.72
2022-11-26T01:41:46.689Z,101408.91
2022-11-26T01:46:53.277Z,101401.94
2022-11-26T01:52:04.867Z,101405.41
2022-11-26T01:57:11.822Z,101401.00
2022-11-26T02:02:16.550Z,101400.09
2022-11-26T02:07:19.791Z,101399.97
2022-11-26T02:12:23.273Z,101382.56
2022-11-26T02:17:33.816Z,101398.16
2022-11-26T02:23:13.759Z,101403.38
2022-11-26T02:28:52.318Z,101393.72
2022-11-26T02:34:07.059Z,101389.34
2022-11-26T02:39:14.903Z,101370.28
2022-11-26T02:44:22.444Z,101372.09
2022-11-26T02:49:28.917Z,101375.63
2022-11-26T02:54:34.823Z,101380.94
2022-11-26T02:59:40.141Z,101391.56
2022-11-26T03:04:48.761Z,101386.44
2022-11-26T03:09:54.490Z,101379.47
2022-11-26T03:14:57.653Z,101362.91
2022-11-26T03:20:03.702Z,101363.72
2022-11-26T03:25:08.654Z,101366.25
2022-11-26T03:30:12.586Z,101364.47
2022-11-26T03:35:17.178Z,101373.16
2022-11-26T03:40:20.381Z,101382.75
2022-11-26T03:45:23.962Z,101375.00
2022-11-26T03:50:28.519Z,101375.88
2022-11-26T03:55:31.723Z,101378.63
2022-11-26T04:00:35.080Z,101380.47
2022-11-26T04:05:39.788Z,101377.94
2022-11-26T04:10:43.052Z,101380.56
2022-11-26T04:15:46.410Z,101363.22
2022-11-26T04:20:53.276Z,101363.22
2022-11-26T04:25:56.593Z,101373.59
2022-11-26T04:30:59.793Z,101379.66
2022-11-26T04:36:04.495Z,101365.75
2022-11-26T04:41:07.703Z,101374.34
2022-11-26T04:46:11.031Z,101367.50
2022-11-26T04:51:15.733Z,101368.38
2022-11-26T04:56:18.953Z,101358.91
2022-11-26T05:01:22.267Z,101355.41
2022-11-26T05:06:27.032Z,101340.59
2022-11-26T05:11:30.281Z,101332.72
2022-11-26T05:16:33.625Z,101333.56
2022-11-26T05:21:38.356Z,101325.75
2022-11-26T05:26:41.589Z,101325.72
2022-11-26T05:31:44.940Z,101316.13
2022-11-26T05:36:49.742Z,101322.19
2022-11-26T05:41:53.001Z,101322.22
2022-11-26T05:46:56.332Z,101323.94
2022-11-26T05:52:01.153Z,101330.88
2022-11-26T05:57:04.430Z,101344.81
2022-11-26T06:02:07.927Z,101358.69
2022-11-26T06:07:12.771Z,101355.19
2022-11-26T06:12:16.128Z,101365.69
2022-11-26T06:17:19.314Z,101376.16
2022-11-26T06:22:23.957Z,101370.13
2022-11-26T06:27:27.289Z,101384.91
2022-11-26T06:32:30.716Z,101382.38
2022-11-26T06:37:35.403Z,101396.34
2022-11-26T06:42:38.681Z,101391.97
2022-11-26T06:47:41.865Z,101384.22
2022-11-26T06:52:46.844Z,101385.91
2022-11-26T06:57:51.805Z,101388.47
2022-11-26T07:02:55.126Z,101391.06
2022-11-26T07:07:59.918Z,101402.31
2022-11-26T07:13:03.215Z,101404.91
2022-11-26T07:18:06.456Z,101419.69
2022-11-26T07:23:11.160Z,101417.13
2022-11-26T07:28:14.489Z,101434.47
2022-11-26T07:33:17.774Z,101441.41
2022-11-26T07:38:22.367Z,101443.09
2022-11-26T07:43:26.076Z,101442.19
2022-11-26T07:48:30.667Z,101442.19
2022-11-26T07:53:36.998Z,101441.34
2022-11-26T07:58:40.273Z,101425.69
2022-11-26T08:03:46.232Z,101420.47
2022-11-26T08:08:51.418Z,101410.91
2022-11-26T08:13:54.974Z,101423.94
2022-11-26T08:19:00.155Z,101430.88
2022-11-26T08:24:05.236Z,101439.59
2022-11-26T08:29:08.689Z,101417.88
2022-11-26T09:56:26.940Z,101420.28
2022-11-26T10:01:32.015Z,101399.34
2022-11-26T10:06:40.997Z,101408.13
2022-11-26T10:11:54.602Z,101420.22
2022-11-26T10:17:15.006Z,101383.53
2022-11-26T10:22:24.456Z,101404.38
2022-11-26T10:27:33.516Z,101373.88
2022-11-26T10:32:40.266Z,101370.38
2022-11-26T10:37:43.519Z,101345.09
2022-11-26T10:42:58.250Z,101341.56
2022-11-26T10:48:17.049Z,101328.41
2022-11-26T10:53:24.095Z,101340.44
2022-11-26T10:58:31.737Z,101318.53
2022-11-26T11:04:07.347Z,101316.75
2022-11-26T11:09:22.708Z,101319.22
2022-11-26T11:14:30.354Z,101316.34
2022-11-26T11:19:34.713Z,101310.91
2022-11-26T11:24:37.905Z,101307.34
2022-11-26T11:29:42.890Z,101295.09
2022-11-26T11:34:47.530Z,101307.19
2022-11-26T11:40:05.658Z,101283.53
2022-11-26T11:45:24.170Z,101284.31
2022-11-26T11:50:34.256Z,101268.31
2022-11-26T11:56:00.895Z,101264.69
2022-11-26T12:01:16.138Z,101263.63
2022-11-26T12:06:28.730Z,101249.50
2022-11-26T12:11:45.700Z,101251.06
2022-11-26T12:16:55.180Z,101260.53
2022-11-26T12:22:04.807Z,101251.97
2022-11-26T12:27:19.049Z,101249.34
2022-11-26T12:32:29.451Z,101239.25
2022-11-26T12:37:34.042Z,101236.44
2022-11-26T12:42:45.416Z,101236.41
2022-11-26T12:47:56.712Z,101231.31
2022-11-26T12:53:05.840Z,101234.78
2022-11-26T12:58:14.176Z,101216.38
2022-11-26T13:03:23.296Z,101202.47
2022-11-26T13:08:39.938Z,101196.97
2022-11-26T13:13:49.573Z,101201.66
2022-11-26T13:18:57.748Z,101192.53
2022-11-26T13:24:19.898Z,101185.88
2022-11-26T13:29:53.301Z,101181.09
2022-11-26T13:35:16.607Z,101178.69
2022-11-26T13:40:58.772Z,101170.34
2022-11-26T13:46:09.845Z,101153.50
2022-11-26T13:51:21.292Z,101146.06
2022-11-26T13:56:27.855Z,101153.16
2022-11-26T14:01:37.184Z,101143.97
2022-11-26T14:07:20.502Z,101145.78
2022-11-26T14:12:25.683Z,101136.94
2022-11-26T14:17:33.865Z,101142.97
2022-11-26T14:22:40.330Z,101144.88
2022-11-26T14:27:50.979Z,101144.44
2022-11-26T14:33:09.705Z,101131.78
2022-11-26T14:38:27.193Z,101120.88
2022-11-26T14:43:30.671Z,101121.50
2022-11-26T14:48:36.864Z,101119.72
2022-11-26T14:53:51.152Z,101118.69
2022-11-26T14:58:56.079Z,101118.81
2022-11-26T15:04:02.049Z,101125.84
2022-11-26T15:09:18.032Z,101124.78
2022-11-26T15:14:27.662Z,101120.97
2022-11-26T15:19:34.851Z,101104.25
2022-11-26T15:24:40.156Z,101098.22
2022-11-26T15:29:50.807Z,101103.38
2022-11-26T15:34:55.691Z,101104.91
2022-11-26T15:40:12.001Z,101103.31
2022-11-26T15:45:17.431Z,101100.78
2022-11-26T15:50:27.618Z,101105.38
2022-11-26T15:55:36.280Z,101098.94
2022-11-26T16:00:41.751Z,101091.22
2022-11-26T16:05:55.371Z,101091.22
2022-11-26T16:11:07.762Z,101097.13
2022-11-26T16:16:17.606Z,101099.41
2022-11-26T16:21:24.550Z,101098.50
2022-11-26T16:26:30.658Z,101111.38
2022-11-26T16:31:34.017Z,101117.06
2022-11-26T16:36:37.168Z,101119.97
2022-11-26T16:41:41.770Z,101116.94
2022-11-26T16:46:52.330Z,101129.38
2022-11-26T16:51:55.479Z,101130.31
2022-11-26T16:57:00.093Z,101140.06
2022-11-26T17:02:03.455Z,101144.56
2022-11-26T17:07:06.732Z,101166.66
2022-11-26T17:12:18.330Z,101162.50
2022-11-26T17:17:25.601Z,101165.34
2022-11-26T17:22:29.130Z,101169.03
2022-11-26T17:27:34.095Z,101164.00
2022-11-26T17:32:37.041Z,101167.78
2022-11-26T17:37:40.962Z,101168.78
2022-11-26T18:02:14.648Z,101149.41
2022-11-26T18:07:19.516Z,101149.75
2022-11-26T18:12:25.726Z,101147.34
2022-11-26T18:17:30.340Z,101158.84
2022-11-26T18:22:33.657Z,101161.50
2022-11-26T18:27:37.173Z,101158.94
2022-11-26T18:32:41.955Z,101164.38
2022-11-26T18:37:45.140Z,101167.06
2022-11-26T18:42:53.361Z,101182.13
2022-11-26T18:47:57.896Z,101179.69
2022-11-26T18:53:01.045Z,101190.63
2022-11-26T18:58:07.956Z,101189.84
2022-11-26T19:03:13.931Z,101180.28
2022-11-26T19:08:17.408Z,101176.09
2022-11-26T19:13:20.596Z,101179.59
2022-11-26T19:18:25.162Z,101171.81
2022-11-26T19:23:28.365Z,101170.09
2022-11-26T19:28:31.580Z,101170.94
2022-11-26T19:33:36.491Z,101174.41
2022-11-26T19:38:40.138Z,101177.00
2022-11-26T19:43:44.153Z,101177.00
2022-11-26T19:48:51.077Z,101177.91
2022-11-26T19:53:56.160Z,101170.94
2022-11-26T19:59:00.356Z,101171.94
2022-11-26T20:04:06.692Z,101177.16
2022-11-26T20:09:10.795Z,101176.31
2022-11-26T20:14:15.591Z,101177.31
2022-11-26T20:19:20.175Z,101172.09
2022-11-26T20:24:23.296Z,101184.25
2022-11-26T20:29:26.462Z,101179.88
2022-11-26T20:34:36.868Z,101173.81
2022-11-26T20:39:40.275Z,101174.94
2022-11-26T20:44:43.580Z,101162.69
2022-11-26T20:49:48.548Z,101160.34
2022-11-26T20:54:53.887Z,101170.94
2022-11-26T20:59:57.272Z,101169.31
2022-11-26T21:05:02.325Z,101183.13
2022-11-26T21:10:05.439Z,101171.78
2022-11-26T21:15:09.711Z,101182.25
2022-11-26T21:20:15.753Z,101196.19
2022-11-26T21:25:18.909Z,101188.38
2022-11-26T21:30:22.081Z,101181.53
2022-11-26T21:35:26.714Z,101178.25
2022-11-26T21:40:30.276Z,101175.75
2022-11-26T21:45:33.473Z,101175.72
2022-11-26T21:50:38.099Z,101172.13
2022-11-26T21:55:41.307Z,101169.44
2022-11-26T22:00:44.723Z,101177.38
2022-11-26T22:06:04.724Z,101180.06
2022-11-26T22:11:34.256Z,101170.41
2022-11-26T22:16:45.877Z,101165.16
2022-11-26T22:21:51.190Z,101174.69
2022-11-26T22:27:06.933Z,101167.81
2022-11-26T22:32:11.650Z,101165.41
2022-11-26T22:37:16.453Z,101156.91
2022-11-26T22:42:19.919Z,101153.50
2022-11-26T22:47:23.100Z,101163.09
2022-11-26T22:52:28.115Z,101166.66
2022-11-26T22:57:31.278Z,101164.91
2022-11-26T23:02:35.009Z,101157.94
2022-11-26T23:07:39.758Z,101165.81
2022-11-26T23:12:42.943Z,101158.03
2022-11-26T23:17:46.099Z,101163.38
2022-11-26T23:22:50.661Z,101156.38
2022-11-26T23:27:53.803Z,101145.09
2022-11-26T23:32:56.951Z,101145.13
2022-11-26T23:38:01.508Z,101139.97
2022-11-26T23:43:08.475Z,101143.47
2022-11-26T23:48:11.905Z,101142.69
2022-11-26T23:53:16.553Z,101137.47
2022-11-26T23:58:20.293Z,101130.53
